Time;durP1;ratioP1;P1;durP2;ratioP2;P2;SDS_P1;SDS_P2;PMS_P1;PMS_P2;Temp;Humidity;BMP_temperature;BMP_pressure;BME280_temperature;BME280_humidity;BME280_pressure;Samples;Min_cycle;Max_cycle;Signal;HPM_P1;HPM_P2
2021/07/30 00:00:30;;;;;;;27.25;12.52;;;;;;;24.69;63.33;98542.38;5087161;28;20051;-92
2021/07/30 00:02:55;;;;;;;21.40;12.98;;;;;;;24.65;63.10;98544.50;5089526;28;20435;-91
2021/07/30 00:05:21;;;;;;;19.77;13.18;;;;;;;24.67;63.89;98557.97;5089303;28;20043;-91
2021/07/30 00:07:48;;;;;;;19.70;13.20;;;;;;;24.62;63.75;98550.22;5089239;28;20105;-91
2021/07/30 00:10:15;;;;;;;19.52;13.57;;;;;;;24.52;63.72;98541.13;5090855;28;20037;-91
2021/07/30 00:12:40;;;;;;;19.92;13.40;;;;;;;24.50;63.95;98540.41;5090501;28;20044;-90
2021/07/30 00:15:07;;;;;;;21.08;13.25;;;;;;;24.44;64.06;98541.81;5088993;28;20044;-90
2021/07/30 00:17:33;;;;;;;22.58;13.65;;;;;;;24.41;64.22;98542.06;5096038;28;20123;-92
2021/07/30 00:20:01;;;;;;;20.65;12.55;;;;;;;24.42;64.05;98548.34;5090519;28;20052;-91
2021/07/30 00:22:27;;;;;;;21.33;13.20;;;;;;;24.32;64.38;98534.72;5088948;28;20055;-90
2021/07/30 00:24:54;;;;;;;23.30;13.85;;;;;;;24.42;63.77;98543.78;5088393;28;20028;-90
2021/07/30 00:27:20;;;;;;;18.48;13.70;;;;;;;24.40;63.57;98538.47;5089180;28;20051;-90
2021/07/30 00:29:45;;;;;;;19.25;13.23;;;;;;;24.36;63.99;98542.47;5088651;28;20492;-91
2021/07/30 00:32:12;;;;;;;22.50;14.48;;;;;;;24.33;64.08;98550.91;5085905;28;20029;-90
2021/07/30 00:34:37;;;;;;;18.30;13.18;;;;;;;24.29;64.14;98549.44;5089441;28;20051;-91
2021/07/30 00:37:04;;;;;;;16.92;12.68;;;;;;;24.24;63.81;98557.09;5088241;28;20040;-90
2021/07/30 00:39:30;;;;;;;20.58;13.32;;;;;;;24.18;63.96;98542.22;5088292;28;20047;-91
2021/07/30 00:42:01;;;;;;;24.17;14.70;;;;;;;24.05;63.98;98532.53;5088416;28;20552;-90
2021/07/30 00:44:27;;;;;;;21.73;13.85;;;;;;;24.10;64.40;98546.59;5077862;28;20086;-91
2021/07/30 00:46:53;;;;;;;18.90;13.13;;;;;;;24.03;64.39;98537.22;5072439;28;20045;-89
2021/07/30 00:49:19;;;;;;;17.48;12.93;;;;;;;23.98;64.41;98518.63;5074713;28;20424;-91
2021/07/30 00:51:45;;;;;;;18.08;13.13;;;;;;;24.03;64.37;98529.97;5074848;28;20036;-90
2021/07/30 00:54:12;;;;;;;20.90;13.38;;;;;;;24.08;63.80;98535.00;5074477;28;20490;-91
2021/07/30 00:56:38;;;;;;;22.02;13.70;;;;;;;24.03;64.27;98546.25;5073786;28;20044;-90
2021/07/30 00:59:06;;;;;;;17.70;12.73;;;;;;;23.86;64.08;98534.13;5074205;28;20398;-90
2021/07/30 01:01:32;;;;;;;24.20;13.15;;;;;;;23.84;63.60;98530.69;5072320;28;20063;-91
2021/07/30 01:03:58;;;;;;;22.40;13.25;;;;;;;23.97;63.89;98546.78;5074581;28;20044;-92
2021/07/30 01:06:24;;;;;;;19.83;13.30;;;;;;;24.00;63.82;98541.06;5074612;28;20086;-91
2021/07/30 01:08:50;;;;;;;23.45;14.10;;;;;;;23.88;63.81;98534.84;5074308;28;20041;-90
2021/07/30 01:11:16;;;;;;;21.05;13.55;;;;;;;23.91;63.56;98545.44;5075015;28;20040;-91
2021/07/30 01:13:42;;;;;;;25.10;13.55;;;;;;;23.93;63.54;98539.88;5074370;28;20041;-91
2021/07/30 01:16:09;;;;;;;20.13;12.95;;;;;;;23.89;63.76;98542.00;5071915;28;20398;-91
2021/07/30 01:18:35;;;;;;;22.35;13.80;;;;;;;23.99;63.71;98556.53;5074405;28;20044;-90
2021/07/30 01:21:11;;;;;;;21.42;13.55;;;;;;;23.89;63.45;98543.84;5074068;28;20033;-91
2021/07/30 01:23:38;;;;;;;17.48;12.45;;;;;;;23.78;63.59;98539.34;5073644;28;20128;-91
2021/07/30 01:26:04;;;;;;;19.02;12.77;;;;;;;23.72;63.93;98550.69;5073856;28;20037;-89
2021/07/30 01:28:30;;;;;;;18.77;13.07;;;;;;;23.68;63.73;98546.50;5073980;28;20037;-91
2021/07/30 01:30:56;;;;;;;16.80;12.32;;;;;;;23.56;63.64;98541.13;5071776;28;20037;-91
2021/07/30 01:33:22;;;;;;;18.80;12.73;;;;;;;23.57;64.08;98548.28;5072347;28;20092;-90
2021/07/30 01:35:48;;;;;;;18.02;12.82;;;;;;;23.28;64.31;98525.44;5073918;28;20068;-90
2021/07/30 01:38:14;;;;;;;20.40;13.13;;;;;;;23.28;65.05;98553.44;5074099;28;20068;-90
2021/07/30 01:40:41;;;;;;;19.35;13.40;;;;;;;23.14;64.91;98535.59;5074070;28;20047;-90
2021/07/30 01:43:06;;;;;;;17.65;12.55;;;;;;;23.12;65.28;98548.41;5073500;28;20060;-91
2021/07/30 01:45:32;;;;;;;23.52;14.15;;;;;;;23.09;65.28;98536.94;5071729;28;20095;-91
2021/07/30 01:47:58;;;;;;;18.23;13.40;;;;;;;22.91;65.71;98523.03;5073636;28;20052;-90
2021/07/30 01:50:24;;;;;;;21.48;13.32;;;;;;;22.91;65.59;98533.88;5073877;28;20037;-91
2021/07/30 01:52:49;;;;;;;21.73;12.82;;;;;;;22.91;65.81;98539.28;5072937;28;20033;-91
2021/07/30 01:55:15;;;;;;;17.63;13.68;;;;;;;22.84;66.20;98538.06;5072598;28;20150;-91
2021/07/30 01:57:42;;;;;;;19.17;12.45;;;;;;;22.83;66.08;98531.78;5073325;28;20037;-91
2021/07/30 02:00:12;;;;;;;18.80;13.20;;;;;;;22.85;66.29;98537.94;5070835;28;20453;-91
2021/07/30 02:02:48;;;;;;;20.38;12.75;;;;;;;22.77;66.49;98538.56;5073544;28;20044;-91
2021/07/30 02:05:13;;;;;;;20.05;13.73;;;;;;;22.75;66.77;98545.09;5073202;28;20494;-91
2021/07/30 02:07:39;;;;;;;21.52;13.57;;;;;;;22.64;67.27;98532.41;5073007;28;20039;-90
2021/07/30 02:10:06;;;;;;;22.92;13.80;;;;;;;22.59;67.14;98534.63;5072753;28;20032;-90
2021/07/30 02:14:14;;;;;;;20.38;12.80;;;;;;;22.67;67.24;98544.84;5073202;28;20056;-91
2021/07/30 02:15:20;;;;;;;19.00;13.07;;;;;;;22.61;67.21;98542.63;5070454;28;20047;-90
2021/07/30 02:17:46;;;;;;;21.15;13.65;;;;;;;22.61;66.84;98546.19;5073564;28;20037;-90
2021/07/30 02:20:11;;;;;;;21.88;14.25;;;;;;;22.44;67.41;98536.69;5072482;28;20090;-89
2021/07/30 02:22:37;;;;;;;19.88;13.10;;;;;;;22.31;67.67;98530.53;5072576;28;20062;-90
2021/07/30 02:25:04;;;;;;;21.23;14.13;;;;;;;22.21;67.74;98527.69;5072455;28;20051;-90
2021/07/30 02:27:29;;;;;;;24.30;13.73;;;;;;;22.26;67.92;98546.31;5072411;28;20063;-89
2021/07/30 02:29:55;;;;;;;22.63;14.40;;;;;;;22.09;67.96;98520.50;5069964;28;20395;-90
2021/07/30 02:32:23;;;;;;;20.55;14.10;;;;;;;21.98;68.74;98534.88;5072472;28;20044;-91
2021/07/30 02:34:49;;;;;;;21.30;14.73;;;;;;;21.91;69.44;98545.31;5072139;28;20413;-91
2021/07/30 02:37:14;;;;;;;19.73;14.38;;;;;;;21.92;69.09;98536.22;5072138;28;20043;-92
2021/07/30 02:39:40;;;;;;;23.83;14.43;;;;;;;21.80;68.73;98526.34;5072053;28;20044;-92
2021/07/30 02:42:06;;;;;;;23.13;14.07;;;;;;;21.80;69.36;98534.47;5071490;28;20056;-91
2021/07/30 02:44:32;;;;;;;20.67;13.98;;;;;;;21.81;69.07;98546.16;5072348;28;20041;-90
2021/07/30 02:46:58;;;;;;;24.92;14.90;;;;;;;21.79;69.39;98538.13;5068987;28;20838;-89
2021/07/30 02:49:25;;;;;;;20.17;14.18;;;;;;;21.69;69.26;98529.88;5072039;28;20043;-91
2021/07/30 02:51:50;;;;;;;22.42;13.82;;;;;;;21.67;69.27;98530.97;5071342;28;20522;-89
2021/07/30 02:54:16;;;;;;;18.00;13.73;;;;;;;21.72;69.95;98543.16;5072720;28;20040;-89
2021/07/30 02:56:42;;;;;;;20.42;14.20;;;;;;;21.70;70.28;98553.22;5072557;28;20556;-89
2021/07/30 02:59:08;;;;;;;22.33;14.55;;;;;;;21.63;70.51;98553.84;5072373;28;20067;-89
2021/07/30 03:01:34;;;;;;;22.27;14.27;;;;;;;21.51;70.52;98544.78;5070296;28;20028;-89
2021/07/30 03:03:59;;;;;;;22.70;14.93;;;;;;;21.43;70.85;98536.41;5072701;28;20036;-90
2021/07/30 03:06:27;;;;;;;19.45;13.55;;;;;;;21.39;70.96;98541.16;5072536;28;20033;-90
2021/07/30 03:08:52;;;;;;;19.17;13.75;;;;;;;21.45;71.21;98546.13;5072613;28;20071;-89
2021/07/30 03:11:18;;;;;;;20.45;14.15;;;;;;;21.47;71.36;98544.19;5072956;28;20041;-90
2021/07/30 03:13:44;;;;;;;22.50;14.27;;;;;;;21.42;70.87;98538.22;5071817;28;20068;-91
2021/07/30 03:16:13;;;;;;;21.75;13.85;;;;;;;21.43;71.22;98541.81;5069756;28;20036;-91
2021/07/30 03:18:39;;;;;;;19.85;14.18;;;;;;;21.41;71.28;98539.22;5072303;28;20078;-89
2021/07/30 03:21:05;;;;;;;30.17;16.95;;;;;;;21.49;71.26;98550.34;5072333;28;20127;-89
2021/07/30 03:23:32;;;;;;;22.42;14.60;;;;;;;21.49;71.32;98555.75;5072374;28;20605;-90
2021/07/30 03:25:58;;;;;;;21.27;14.35;;;;;;;21.44;71.50;98552.50;5072101;28;20036;-90
2021/07/30 03:28:24;;;;;;;20.58;14.35;;;;;;;21.42;71.92;98550.91;5072231;28;20044;-90
2021/07/30 03:30:50;;;;;;;23.27;14.93;;;;;;;21.33;71.69;98549.72;5067155;28;20524;-90
2021/07/30 03:33:16;;;;;;;22.00;14.95;;;;;;;21.37;72.19;98551.22;5072014;28;20401;-91
2021/07/30 03:35:42;;;;;;;22.13;14.75;;;;;;;21.31;72.10;98540.84;5072019;28;20041;-90
2021/07/30 03:38:08;;;;;;;23.33;14.15;;;;;;;21.24;72.22;98536.88;5071270;28;20131;-89
2021/07/30 03:40:35;;;;;;;19.77;14.32;;;;;;;21.30;72.19;98541.84;5071011;28;20566;-89
2021/07/30 03:43:01;;;;;;;22.25;13.65;;;;;;;21.36;72.41;98557.63;5074118;28;20044;-89
2021/07/30 03:45:27;;;;;;;21.90;14.98;;;;;;;21.33;72.03;98552.41;5070964;28;20127;-90
2021/07/30 03:47:53;;;;;;;22.38;14.77;;;;;;;21.31;72.17;98562.50;5071594;28;20559;-90
2021/07/30 03:50:18;;;;;;;21.35;14.23;;;;;;;21.27;72.32;98547.47;5071931;28;20060;-89
2021/07/30 03:52:44;;;;;;;20.75;15.40;;;;;;;21.29;72.71;98543.66;5071806;28;20474;-89
2021/07/30 03:55:10;;;;;;;22.50;15.05;;;;;;;21.26;72.82;98546.59;5071353;28;20033;-89
2021/07/30 03:57:37;;;;;;;23.65;14.98;;;;;;;21.29;72.68;98559.03;5071909;28;20115;-89
2021/07/30 04:00:04;;;;;;;20.67;14.00;;;;;;;21.33;72.80;98561.38;5069590;28;20046;-88
2021/07/30 04:02:30;;;;;;;22.60;15.23;;;;;;;21.35;72.60;98564.00;5072030;28;20053;-90
2021/07/30 04:04:55;;;;;;;23.17;14.30;;;;;;;21.38;72.35;98566.47;5071862;28;20043;-90
2021/07/30 04:07:21;;;;;;;24.80;14.65;;;;;;;21.31;72.54;98548.97;5071947;28;20132;-89
2021/07/30 04:09:47;;;;;;;25.10;16.10;;;;;;;21.43;72.81;98567.03;5071950;28;20040;-89
2021/07/30 04:12:13;;;;;;;23.23;15.30;;;;;;;21.43;72.62;98564.31;5072111;28;20445;-90
2021/07/30 04:14:40;;;;;;;23.48;14.98;;;;;;;21.38;72.28;98546.66;5071299;28;20405;-90
2021/07/30 04:17:08;;;;;;;23.58;14.82;;;;;;;21.39;71.95;98551.97;5068555;28;20565;-88
2021/07/30 04:19:33;;;;;;;20.77;14.85;;;;;;;21.28;72.21;98552.78;5072740;28;20123;-90
2021/07/30 04:21:59;;;;;;;19.45;14.27;;;;;;;21.29;72.36;98542.81;5075473;28;21418;-90
2021/07/30 04:24:25;;;;;;;18.60;14.43;;;;;;;21.31;72.25;98557.94;5075415;28;20032;-89
2021/07/30 04:26:51;;;;;;;22.00;14.48;;;;;;;21.37;71.77;98567.44;5075709;28;20127;-90
2021/07/30 04:29:16;;;;;;;20.63;13.65;;;;;;;21.33;72.06;98550.56;5075337;28;20029;-91
2021/07/30 04:31:44;;;;;;;20.98;13.82;;;;;;;21.40;71.76;98555.53;5072975;28;20044;-91
2021/07/30 04:34:09;;;;;;;24.92;13.65;;;;;;;21.50;71.84;98564.72;5075612;28;20398;-90
2021/07/30 04:36:35;;;;;;;21.35;14.45;;;;;;;21.39;71.34;98546.56;5075578;28;20036;-91
2021/07/30 04:39:01;;;;;;;18.80;13.98;;;;;;;21.50;71.33;98552.06;5075468;28;20037;-90
2021/07/30 04:41:27;;;;;;;22.70;14.15;;;;;;;21.53;71.77;98567.19;5075244;28;20135;-90
2021/07/30 04:43:52;;;;;;;18.33;13.60;;;;;;;21.56;71.65;98558.84;5076340;28;20036;-90
2021/07/30 04:46:19;;;;;;;24.52;14.57;;;;;;;21.64;71.63;98569.09;5072772;28;20045;-90
2021/07/30 04:48:46;;;;;;;20.98;14.15;;;;;;;21.65;71.93;98565.41;5075093;28;20041;-90
2021/07/30 04:51:12;;;;;;;19.17;14.43;;;;;;;21.65;72.16;98566.25;5074680;28;20032;-89
2021/07/30 04:53:38;;;;;;;19.73;14.27;;;;;;;21.75;71.88;98566.41;5074781;28;20067;-90
2021/07/30 04:56:04;;;;;;;19.92;14.25;;;;;;;21.71;72.16;98565.81;5075361;28;20394;-89
2021/07/30 04:58:30;;;;;;;28.55;14.32;;;;;;;21.68;72.04;98552.50;5074626;28;20037;-91
2021/07/30 05:00:56;;;;;;;24.25;15.73;;;;;;;21.82;72.26;98569.53;5073174;28;20039;-90
2021/07/30 05:03:22;;;;;;;20.35;14.65;;;;;;;21.79;71.58;98554.38;5074918;28;20086;-90
2021/07/30 05:05:49;;;;;;;24.83;15.18;;;;;;;21.97;71.34;98564.78;5074846;28;20493;-90
2021/07/30 05:08:15;;;;;;;23.60;14.43;;;;;;;21.95;70.97;98559.50;5074892;28;20033;-90
2021/07/30 05:10:48;;;;;;;20.90;14.18;;;;;;;22.15;69.86;98569.63;5074380;28;20039;-90
2021/07/30 05:13:13;;;;;;;21.45;14.68;;;;;;;22.60;67.87;98568.88;5073981;28;20044;-90
2021/07/30 05:15:39;;;;;;;20.25;13.68;;;;;;;23.02;66.63;98571.00;5071725;28;20032;-91
2021/07/30 05:18:05;;;;;;;19.45;13.23;;;;;;;23.37;63.29;98562.66;5074074;28;20032;-89
2021/07/30 05:20:31;;;;;;;22.23;14.15;;;;;;;23.71;61.99;98559.84;5074352;28;20505;-90
2021/07/30 05:22:58;;;;;;;18.30;13.50;;;;;;;23.97;60.98;98553.06;5074348;28;20043;-90
2021/07/30 05:25:24;;;;;;;23.17;13.10;;;;;;;24.32;61.24;98565.47;5074260;28;20060;-90
2021/07/30 05:27:49;;;;;;;19.52;13.20;;;;;;;24.47;59.62;98551.53;5074524;28;20075;-90
2021/07/30 05:30:15;;;;;;;19.75;12.52;;;;;;;24.71;58.89;98559.41;5071972;28;20033;-90
2021/07/30 05:32:41;;;;;;;19.17;12.57;;;;;;;24.95;58.57;98568.09;5074171;28;20846;-92
2021/07/30 05:35:08;;;;;;;20.48;13.20;;;;;;;25.12;57.78;98568.44;5074656;28;20502;-91
2021/07/30 05:37:34;;;;;;;17.23;13.10;;;;;;;25.25;57.86;98571.81;5074383;28;20131;-90
2021/07/30 05:40:01;;;;;;;17.35;12.70;;;;;;;25.38;57.33;98566.09;5074438;28;20071;-90
2021/07/30 05:42:27;;;;;;;20.00;12.25;;;;;;;25.56;56.75;98569.00;5074964;28;20045;-91
2021/07/30 05:44:53;;;;;;;16.83;12.50;;;;;;;25.59;55.97;98550.53;5071673;28;20101;-92
2021/07/30 05:47:19;;;;;;;21.42;12.93;;;;;;;25.69;55.56;98546.94;5073945;28;20058;-91
2021/07/30 05:49:44;;;;;;;19.73;12.93;;;;;;;26.00;54.84;98562.16;5073619;28;20060;-91
2021/07/30 05:52:10;;;;;;;16.77;12.25;;;;;;;26.09;54.55;98563.16;5073820;28;20052;-89
2021/07/30 05:54:36;;;;;;;23.10;13.20;;;;;;;26.24;52.96;98560.84;5073793;28;20044;-90
2021/07/30 05:57:04;;;;;;;17.52;11.82;;;;;;;26.08;52.93;98549.69;5074188;28;20123;-89
2021/07/30 05:59:29;;;;;;;17.48;11.45;;;;;;;26.30;52.47;98562.97;5073539;28;20554;-91
2021/07/30 06:01:55;;;;;;;17.92;11.50;;;;;;;26.40;51.96;98562.97;5071183;28;20060;-89
2021/07/30 06:04:21;;;;;;;17.10;12.50;;;;;;;26.42;51.70;98563.69;5073710;28;20772;-91
2021/07/30 06:06:47;;;;;;;19.55;12.70;;;;;;;26.47;52.01;98549.59;5073967;28;20028;-90
2021/07/30 06:09:13;;;;;;;17.63;11.60;;;;;;;26.76;51.87;98565.88;5073516;28;20119;-91
2021/07/30 06:11:39;;;;;;;20.95;12.02;;;;;;;26.71;51.10;98558.16;5072319;28;20036;-91
2021/07/30 06:14:06;;;;;;;16.33;12.48;;;;;;;26.76;51.71;98553.13;5073605;28;20525;-92
2021/07/30 06:16:32;;;;;;;16.40;12.05;;;;;;;26.87;52.01;98568.44;5071488;28;20138;-91
2021/07/30 06:18:58;;;;;;;18.75;12.40;;;;;;;26.46;52.46;98562.38;5073547;28;20466;-91
2021/07/30 06:21:23;;;;;;;15.95;11.48;;;;;;;26.56;52.40;98565.94;5073559;28;20028;-92
2021/07/30 06:23:49;;;;;;;18.70;12.23;;;;;;;26.73;51.89;98569.78;5074083;28;20056;-91
2021/07/30 06:26:15;;;;;;;18.08;11.70;;;;;;;26.88;51.80;98561.13;5073529;28;20032;-91
2021/07/30 06:28:41;;;;;;;21.17;12.48;;;;;;;26.77;52.12;98563.00;5073012;28;20040;-91
2021/07/30 06:31:08;;;;;;;24.40;13.38;;;;;;;26.92;51.48;98562.53;5072005;28;20072;-92
2021/07/30 06:33:34;;;;;;;18.83;12.35;;;;;;;26.95;51.72;98557.63;5073139;28;20068;-91
2021/07/30 06:36:00;;;;;;;18.77;13.20;;;;;;;27.14;50.71;98564.84;5072822;28;20075;-91
2021/07/30 06:38:26;;;;;;;17.83;12.05;;;;;;;27.37;50.67;98575.38;5072150;28;20048;-90
2021/07/30 06:40:51;;;;;;;21.77;12.70;;;;;;;27.59;50.02;98574.97;5071932;28;20098;-90
2021/07/30 06:43:17;;;;;;;21.17;12.00;;;;;;;27.61;50.04;98562.00;5072145;28;20036;-90
2021/07/30 06:45:44;;;;;;;16.63;11.85;;;;;;;27.71;49.90;98558.34;5070308;28;20160;-91
2021/07/30 06:48:11;;;;;;;19.65;12.45;;;;;;;27.53;50.03;98575.56;5072172;28;21307;-90
2021/07/30 06:50:37;;;;;;;16.95;12.07;;;;;;;27.69;49.99;98571.28;5070847;28;20043;-90
2021/07/30 06:53:03;;;;;;;24.13;12.65;;;;;;;27.82;49.48;98547.16;5072678;28;20441;-89
2021/07/30 06:55:29;;;;;;;20.33;12.23;;;;;;;28.03;49.22;98569.59;5072533;28;20494;-89
2021/07/30 06:57:55;;;;;;;19.88;11.63;;;;;;;28.10;48.51;98555.31;5071874;28;20040;-90
2021/07/30 07:00:20;;;;;;;20.42;12.45;;;;;;;28.14;48.50;98551.25;5070132;28;20036;-90
2021/07/30 07:02:46;;;;;;;20.88;13.13;;;;;;;28.34;48.23;98560.97;5072340;28;20453;-91
2021/07/30 07:05:14;;;;;;;17.90;12.65;;;;;;;28.46;47.83;98553.38;5071959;28;20032;-90
2021/07/30 07:07:40;;;;;;;20.77;12.75;;;;;;;28.67;47.22;98573.03;5072142;28;20049;-90
2021/07/30 07:10:06;;;;;;;17.13;11.73;;;;;;;28.69;47.04;98570.09;5071590;28;20041;-89
2021/07/30 07:12:32;;;;;;;23.90;12.88;;;;;;;28.75;46.66;98554.94;5071555;28;20037;-91
2021/07/30 07:14:58;;;;;;;20.38;12.80;;;;;;;28.81;46.21;98555.13;5069347;28;20043;-90
2021/07/30 07:17:24;;;;;;;20.63;13.02;;;;;;;28.91;46.50;98563.25;5069765;28;20045;-90
2021/07/30 07:19:50;;;;;;;19.73;13.55;;;;;;;28.98;46.25;98555.22;5070727;28;20621;-91
2021/07/30 07:22:17;;;;;;;20.90;12.82;;;;;;;29.10;46.33;98572.25;5071905;28;20033;-90
2021/07/30 07:24:43;;;;;;;21.83;12.68;;;;;;;29.12;46.13;98562.84;5071010;28;20500;-90
2021/07/30 07:27:09;;;;;;;22.48;13.38;;;;;;;29.20;44.85;98562.88;5071113;28;20055;-90
2021/07/30 07:29:35;;;;;;;27.70;12.73;;;;;;;28.87;46.29;98543.53;5070446;28;20048;-91
2021/07/30 07:32:00;;;;;;;18.95;13.27;;;;;;;29.10;45.82;98551.19;5066652;28;20044;-90
2021/07/30 07:34:27;;;;;;;17.90;12.48;;;;;;;29.27;45.84;98558.44;5071746;28;20090;-90
2021/07/30 07:36:53;;;;;;;22.38;12.68;;;;;;;29.28;45.42;98551.94;5071530;28;20040;-89
2021/07/30 07:39:20;;;;;;;19.35;13.18;;;;;;;29.45;45.67;98551.97;5073505;28;20040;-91
2021/07/30 07:41:46;;;;;;;24.02;12.65;;;;;;;29.53;45.57;98560.22;5073657;28;20068;-91
2021/07/30 07:44:13;;;;;;;18.13;12.93;;;;;;;29.02;46.61;98564.84;5072910;28;20129;-92
2021/07/30 07:46:38;;;;;;;21.48;12.32;;;;;;;29.02;45.74;98545.66;5071608;28;20417;-91
2021/07/30 07:49:04;;;;;;;21.08;13.43;;;;;;;29.06;46.10;98547.03;5073508;28;20102;-91
2021/07/30 07:51:30;;;;;;;18.05;12.07;;;;;;;29.15;45.85;98568.00;5071449;28;20143;-90
2021/07/30 07:53:56;;;;;;;20.33;12.43;;;;;;;29.18;45.55;98567.66;5072429;28;20040;-92
2021/07/30 07:56:23;;;;;;;19.95;12.55;;;;;;;29.22;45.23;98562.72;5074651;28;20102;-90
2021/07/30 07:58:49;;;;;;;23.27;12.35;;;;;;;29.52;45.08;98557.69;5074932;28;20127;-90
2021/07/30 08:01:15;;;;;;;22.48;12.38;;;;;;;29.88;44.34;98539.06;5073000;28;20124;-90
2021/07/30 08:03:44;;;;;;;19.88;11.48;;;;;;;29.96;42.34;98540.97;5074490;28;20044;-90
2021/07/30 08:06:15;;;;;;;19.20;11.32;;;;;;;30.06;42.19;98542.53;5075891;28;20033;-90
2021/07/30 08:08:41;;;;;;;15.30;11.30;;;;;;;30.43;41.34;98540.31;5075792;28;20040;-90
2021/07/30 08:11:07;;;;;;;16.75;11.13;;;;;;;30.62;41.08;98550.03;5075776;28;20367;-91
2021/07/30 08:13:34;;;;;;;19.75;11.65;;;;;;;30.77;41.16;98552.91;5075652;28;20079;-89
2021/07/30 08:16:00;;;;;;;18.67;12.18;;;;;;;30.56;41.66;98553.44;5074815;28;20109;-90
2021/07/30 08:18:26;;;;;;;20.98;11.77;;;;;;;30.78;41.19;98562.88;5076349;28;20052;-92
2021/07/30 08:20:52;;;;;;;19.63;12.10;;;;;;;30.47;40.58;98539.78;5076376;28;20401;-91
2021/07/30 08:23:17;;;;;;;19.00;12.20;;;;;;;30.34;41.45;98560.53;5077060;28;20090;-89
2021/07/30 08:25:43;;;;;;;15.80;12.48;;;;;;;30.52;41.78;98555.72;5077388;28;20045;-90
2021/07/30 08:28:09;;;;;;;18.88;11.82;;;;;;;30.54;41.63;98558.28;5076903;28;20043;-89
2021/07/30 08:30:36;;;;;;;16.95;11.88;;;;;;;30.59;41.12;98561.34;5072740;28;20092;-90
2021/07/30 08:33:02;;;;;;;20.90;12.13;;;;;;;30.62;41.19;98567.38;5074495;28;20059;-91
2021/07/30 08:35:28;;;;;;;17.80;11.43;;;;;;;30.57;42.28;98563.41;5074877;28;20045;-91
2021/07/30 08:37:54;;;;;;;19.80;11.65;;;;;;;30.88;41.44;98564.41;5075090;28;20537;-90
2021/07/30 08:40:20;;;;;;;19.77;12.43;;;;;;;31.21;40.33;98556.03;5075266;28;20273;-90
2021/07/30 08:42:48;;;;;;;16.92;12.50;;;;;;;31.57;39.86;98561.03;5075199;28;20045;-91
2021/07/30 08:45:14;;;;;;;19.73;12.07;;;;;;;31.42;38.16;98532.56;5072507;28;20036;-91
2021/07/30 08:47:43;;;;;;;19.88;12.13;;;;;;;31.20;39.13;98536.97;5075737;28;20094;-89
2021/07/30 08:50:10;;;;;;;17.25;11.40;;;;;;;31.49;38.92;98533.63;5074906;28;20051;-90
2021/07/30 08:52:40;;;;;;;16.40;12.10;;;;;;;31.89;38.70;98556.34;5073800;28;20029;-90
2021/07/30 08:55:08;;;;;;;20.65;12.55;;;;;;;31.85;38.87;98546.75;5073651;28;20540;-90
2021/07/30 08:57:34;;;;;;;24.20;12.07;;;;;;;32.18;37.90;98535.50;5075359;28;20045;-90
2021/07/30 09:00:07;;;;;;;17.33;11.60;;;;;;;32.50;36.38;98550.88;5072673;28;20032;-91
2021/07/30 09:02:33;;;;;;;17.65;11.55;;;;;;;32.42;36.66;98546.31;5074380;28;20041;-91
2021/07/30 09:05:23;;;;;;;17.98;12.18;;;;;;;31.94;36.46;98542.91;5074527;28;20033;-90
2021/07/30 09:07:49;;;;;;;17.38;11.57;;;;;;;32.04;37.52;98537.19;5075127;28;20060;-91
2021/07/30 09:10:26;;;;;;;17.38;12.35;;;;;;;32.06;36.89;98538.72;5074961;28;20068;-91
2021/07/30 09:13:09;;;;;;;18.80;11.82;;;;;;;31.93;37.66;98549.44;5074535;28;20123;-90
2021/07/30 09:15:35;;;;;;;23.10;12.70;;;;;;;31.46;38.75;98536.69;5073513;28;20041;-91
2021/07/30 09:18:00;;;;;;;17.17;11.73;;;;;;;31.36;38.27;98536.03;5074741;28;20044;-92
2021/07/30 09:20:28;;;;;;;18.40;11.60;;;;;;;31.80;38.09;98532.72;5074720;28;20036;-92
2021/07/30 09:22:54;;;;;;;15.43;11.53;;;;;;;32.24;36.70;98526.53;5074211;28;20049;-92
2021/07/30 09:25:33;;;;;;;20.05;12.52;;;;;;;32.57;36.35;98518.81;5074674;28;20094;-92
2021/07/30 09:28:02;;;;;;;18.23;12.15;;;;;;;32.70;35.68;98508.03;5074690;28;20040;-91
2021/07/30 09:30:28;;;;;;;18.88;11.68;;;;;;;32.94;35.39;98528.91;5072557;28;20068;-92
2021/07/30 09:32:54;;;;;;;18.77;11.68;;;;;;;32.39;35.67;98530.16;5074308;28;20079;-92
2021/07/30 09:35:20;;;;;;;19.40;11.48;;;;;;;32.35;35.93;98517.81;5074938;28;20032;-91
2021/07/30 09:38:13;;;;;;;21.42;12.43;;;;;;;32.67;35.07;98515.78;5074554;28;20051;-91
2021/07/30 09:40:39;;;;;;;19.20;11.38;;;;;;;32.98;34.49;98514.75;5071957;28;20037;-91
2021/07/30 09:43:20;;;;;;;19.63;10.70;;;;;;;32.28;34.82;98506.69;5074568;28;20124;-91
2021/07/30 09:45:46;;;;;;;19.60;11.52;;;;;;;32.57;34.88;98504.19;5068364;28;20510;-91
2021/07/30 09:48:12;;;;;;;16.58;11.88;;;;;;;32.44;35.07;98496.56;5074161;28;20128;-91
2021/07/30 09:50:38;;;;;;;18.73;10.73;;;;;;;32.86;33.42;98495.94;5074282;28;20049;-92
2021/07/30 09:53:06;;;;;;;25.67;11.50;;;;;;;33.04;33.66;98494.69;5074125;28;20040;-91
2021/07/30 09:55:35;;;;;;;17.58;10.88;;;;;;;33.20;33.55;98472.44;5073786;28;20137;-92
2021/07/30 09:58:02;;;;;;;15.80;10.18;;;;;;;32.82;32.74;98474.50;5074318;28;20048;-92
2021/07/30 10:00:31;;;;;;;16.63;9.68;;;;;;;33.24;31.75;98489.44;5073563;28;20476;-95
2021/07/30 10:03:02;;;;;;;16.10;9.02;;;;;;;33.61;31.16;98476.53;5074621;28;20170;-93
2021/07/30 10:05:29;;;;;;;16.15;10.32;;;;;;;33.63;29.97;98483.56;5074741;28;20048;-93
2021/07/30 10:07:58;;;;;;;20.10;11.05;;;;;;;33.92;29.95;98484.50;5074764;28;20127;-93
2021/07/30 10:10:32;;;;;;;21.58;10.98;;;;;;;33.08;31.16;98471.25;5071884;28;20060;-92
2021/07/30 10:13:00;;;;;;;14.15;10.45;;;;;;;33.03;32.14;98448.88;5074590;28;20033;-93
2021/07/30 10:15:28;;;;;;;15.15;10.02;;;;;;;33.53;31.36;98452.69;5066684;28;20052;-93
2021/07/30 10:17:56;;;;;;;16.33;9.38;;;;;;;33.90;29.81;98453.47;5073574;28;20040;-92
2021/07/30 10:20:24;;;;;;;12.35;8.88;;;;;;;33.81;29.54;98462.94;5074602;28;20498;-91
2021/07/30 10:22:53;;;;;;;17.42;9.73;;;;;;;33.94;29.94;98471.31;5074135;28;20086;-93
2021/07/30 10:25:22;;;;;;;17.20;9.38;;;;;;;33.96;29.78;98455.41;5074139;28;20051;-92
2021/07/30 10:27:53;;;;;;;19.55;9.82;;;;;;;33.54;29.39;98451.63;5074109;28;20058;-94
2021/07/30 10:30:18;;;;;;;16.02;9.18;;;;;;;33.58;31.09;98463.97;5073135;28;20148;-93
2021/07/30 10:32:50;;;;;;;14.80;8.90;;;;;;;33.99;29.02;98455.03;5074260;28;20131;-93
2021/07/30 10:35:17;;;;;;;12.15;8.60;;;;;;;34.28;28.12;98442.13;5073969;28;20128;-93
2021/07/30 10:37:45;;;;;;;17.17;10.35;;;;;;;34.00;29.32;98453.13;5073820;28;20051;-93
2021/07/30 10:40:15;;;;;;;;;;;;;;;33.89;29.17;98457.28;5074719;28;20123;-94
2021/07/30 10:43:02;;;;;;;15.88;9.20;;;;;;;33.59;28.88;98446.38;5074425;28;20361;-91
2021/07/30 10:45:28;;;;;;;16.13;9.18;;;;;;;33.43;28.43;98436.47;5070246;28;20036;-92
2021/07/30 10:48:30;;;;;;;13.02;8.63;;;;;;;33.59;29.35;98438.13;5074156;28;20090;-92
2021/07/30 10:50:59;;;;;;;16.23;8.40;;;;;;;33.43;28.68;98438.38;5028497;28;20384;-91
2021/07/30 10:53:49;;;;;;;14.10;8.77;;;;;;;33.65;28.65;98431.81;5029085;28;20060;-93
2021/07/30 10:56:45;;;;;;;11.88;8.38;;;;;;;33.59;28.47;98435.38;5031918;28;20502;-91
2021/07/30 10:59:13;;;;;;;12.05;8.38;;;;;;;33.58;28.64;98419.84;5030393;28;20550;-93
2021/07/30 11:01:59;;;;;;;12.45;9.32;;;;;;;33.27;29.11;98433.97;5031190;28;20063;-93
2021/07/30 11:04:25;;;;;;;14.48;8.68;;;;;;;33.38;29.29;98429.81;5031633;28;20044;-93
2021/07/30 11:07:03;;;;;;;13.02;8.70;;;;;;;33.70;29.21;98426.59;5031671;28;20051;-94
2021/07/30 11:09:38;;;;;;;;;;;;;;;34.14;28.50;98431.00;5032406;28;20038;-92
2021/07/30 11:12:07;;;;;;;12.60;7.88;;;;;;;34.50;28.05;98420.81;5031968;28;20020;-93
2021/07/30 11:14:36;;;;;;;10.50;8.00;;;;;;;34.69;27.40;98413.72;5031347;28;20048;-92
2021/07/30 11:17:05;;;;;;;9.68;7.75;;;;;;;34.71;25.86;98411.59;5030779;28;20107;-93
2021/07/30 11:19:32;;;;;;;11.65;7.57;;;;;;;34.73;24.12;98401.22;5031646;28;20056;-93